EDT,Max TemperatureF,Mean TemperatureF,Min TemperatureF,Max Dew PointF,MeanDew PointF,Min DewpointF,Max Humidity, Mean Humidity, Min Humidity, Max Sea Level PressureIn, Mean Sea Level PressureIn, Min Sea Level PressureIn, Max VisibilityMiles, Mean VisibilityMiles, Min VisibilityMiles, Max Wind SpeedMPH, Mean Wind SpeedMPH, Max Gust SpeedMPH,PrecipitationIn, CloudCover, Events, WindDirDegrees
2013-6-1,77,66,57,65,61,55,100,86,62,29.76,29.69,29.65,10,8,0,17,3,28,0.48,6,Fog-Rain-Thunderstorm,230
2013-6-2,61,48,35,56,42,33,100,80,63,30.03,29.82,29.60,10,10,10,21,11,30,0.05,7,Rain,291
2013-6-3,60,44,30,40,34,29,92,66,36,30.14,30.06,30.03,10,10,10,20,6,24,0.00,0,,295
2013-6-4,66,47,30,40,33,28,92,56,29,30.25,30.21,30.17,10,10,10,9,2,,0.00,1,,305
2013-6-5,59,52,46,46,43,41,83,69,53,30.23,30.19,30.14,10,10,10,8,2,,0.00,7,Rain,76
2013-6-6,68,58,44,42,38,30,85,51,25,30.14,30.05,29.99,10,10,10,17,7,24,0.00,6,,81
2013-6-7,73,55,37,43,38,35,93,61,25,30.01,29.97,29.91,10,10,10,10,2,16,0.00,0,,16
2013-6-8,71,54,39,49,43,37,93,65,32,30.09,30.00,29.94,10,10,10,9,2,,0.00,3,,286
2013-6-9,79,57,37,52,45,35,97,62,33,30.15,30.09,30.03,10,10,10,13,4,21,0.00,1,,108
2013-6-10,72,66,59,57,53,47,94,73,57,30.02,29.89,29.85,10,9,3,14,6,18,0.00,7,,91
2013-6-11,78,67,55,61,58,54,96,82,56,29.89,29.86,29.82,10,8,2,10,2,,0.00,7,,348
2013-6-12,81,66,51,57,52,44,100,83,29,29.93,29.88,29.77,10,4,0,10,1,,0.00,2,Fog,345
2013-6-13,75,62,52,54,51,46,89,65,51,30.03,29.88,29.75,10,10,10,17,7,25,0.00,2,,322
2013-6-14,75,57,41,46,38,23,93,55,15,30.15,30.09,30.05,10,10,10,8,2,,0.00,0,,352
2013-6-15,75,57,39,61,46,36,96,66,29,30.05,29.97,29.84,10,10,6,10,2,,0.04,4,Rain,238
2013-6-16,73,65,55,61,58,54,100,86,57,29.85,29.79,29.75,10,7,1,17,6,25,0.24,6,Rain-Thunderstorm,281
2013-6-17,64,56,46,55,51,45,96,81,64,30.05,29.94,29.84,10,10,10,12,3,,0.00,5,Rain,59
2013-6-18,71,54,37,49,40,33,97,62,28,30.15,30.11,30.05,10,10,10,13,3,20,0.00,0,,39
2013-6-19,73,54,35,47,40,33,93,61,28,30.20,30.16,30.12,10,10,10,12,2,,0.00,0,,257
2013-6-20,81,60,39,53,46,38,96,60,32,30.17,30.15,30.13,10,10,10,13,3,23,0.00,1,,269
2013-6-21,82,68,53,66,58,51,93,75,52,30.17,30.06,29.93,10,10,7,12,3,,0.04,4,Rain,144
2013-6-22,73,66,59,61,60,57,100,88,68,30.08,30.03,29.96,10,6,1,12,6,18,0.01,7,Rain,287
2013-6-23,86,72,60,68,63,59,96,76,46,30.05,29.95,29.86,10,8,4,14,4,22,0.00,3,Rain,201
2013-6-24,82,75,66,67,66,64,90,70,56,29.97,29.91,29.85,10,10,9,13,6,18,0.00,1,,248
2013-6-25,75,70,62,67,64,61,96,82,69,29.87,29.84,29.82,10,10,2,13,4,20,0.14,5,Rain-Thunderstorm,261
2013-6-26,90,72,54,65,59,53,97,72,36,29.83,29.80,29.73,10,9,2,14,1,,0.00,1,,108
2013-6-27,79,72,62,67,64,60,94,83,61,29.79,29.73,29.68,10,8,1,10,5,,0.55,6,Rain-Thunderstorm,338
2013-6-28,75,66,59,63,60,57,100,87,64,29.68,29.64,29.60,10,7,0,12,3,,0.01,6,Fog-Rain,13
2013-6-29,77,68,60,61,57,53,90,72,50,29.81,29.71,29.64,10,10,10,13,7,17,0.01,5,Rain,8
2013-6-30,78,64,50,55,47,40,93,58,25,30.06,29.95,29.83,10,10,8,13,4,18,0.00,0,,14